Amr Zaki

Olheiro-Chefe - Al Ahly
4 Abr 2028
Terça-feira
Processo

Personalidade

Adaptabilidade (9) Ambição (6) Controvérsia (4) Lealdade (17) Pressão (3) Profissionalismo (7) Espírito Esportivo (4) Temperamento (2)

Perfil

Estilo de Treinamento Democrático
Licença Continental B
Determinação 13
Gestão de Pessoas 14
Motivação 14
Disciplina 7
Satisfação no Trabalho
100%
Fadiga
0%
Função Olheiro-Chefe
Salário 79.6K p/s
Contrato 14.03.2030

Desempenho

Comportamento Bom
Eficácia do Treinamento
46%
Desenvolvimento do Jogador
30%
Prevenção de Lesões
35%
Implementação Tática
60%

Monitorando agora

119
Jogador Clube Status Habilidade Confiança Observado Última observação Último voto
Fredrik Sjøvold Bodo/Glimt Ativo 134 / 156 40% 4 31.01.2028 -
Juan Giménez Athletic Bilbao Ativo 122 / 133 40% 2 31.01.2028 -
Ali Majrashi Al-Ahli Ativo 128 / 136 40% 9 31.01.2028 -
Marcelo Allende Mamelodi Sundowns Ativo 139 / 145 40% 2 31.01.2028 -
Denys Smetana Inhulets Ativo 96 / 98 40% 2 31.01.2028 -
Filip Reshane Lillestrom Ativo 104 / 112 40% 1 31.01.2028 -
Gustavo Hamer Sheffield United Ativo 135 / 156 40% 3 29.01.2028 -
Håkon Evjen Bodo/Glimt Ativo 133 / 139 40% 1 29.01.2028 -
Ilias Chair Queens Park Rangers Ativo 137 / 149 40% 1 29.01.2028 -
Jens Petter Hauge Bodo/Glimt Ativo 144 / 143 40% 5 28.01.2028 -
Bitello Dinamo Moscow Ativo 145 / 151 40% 1 28.01.2028 -
Alisson Shakhtar Ativo 150 / 135 40% 1 28.01.2028 -
Alan Lescano Argentinos Juniors Ativo 142 / 143 40% 3 27.01.2028 -
John Chetauya Elche Ativo 142 / 130 40% 4 26.01.2028 -
Caio Vidal CSKA Sofia Ativo 144 / 152 40% 1 26.01.2028 -
Petar Stanić Ludogorets Ativo 143 / 156 40% 3 25.01.2028 -
Rúben Neves Al-Hilal Ativo 165 / 158 40% 3 25.01.2028 -
Izan Merino Málaga Ativo 138 / 123 40% 1 25.01.2028 -
Salem Nader Al Ahli Ativo 97 / 98 40% 1 24.01.2028 -
Aleksander Wyganowski Legia Ativo 97 / 123 40% 1 24.01.2028 -
Louka Gautier Chamois Niortais Ativo 96 / 102 40% 1 23.01.2028 -
Nicolas Sport Recife Ativo 114 / 96 40% 1 23.01.2028 -
Jens Mathijsen Willem II Ativo 119 / 109 40% 1 23.01.2028 -
Saeed Abdulrahman Al Shabab Ativo 96 / 123 40% 3 21.01.2028 -
Lennon Miller Udinese Ativo 146 / 123 40% 1 21.01.2028 -
Miguel Figueiredo Benfica Ativo 109 / 133 40% 1 21.01.2028 -
Vinicius Tobias Shakhtar Ativo 142 / 133 40% 1 16.01.2028 -
Zaydou Youssouf Al-Fateh Ativo 131 / 130 40% 2 15.01.2028 -
Marlon Gomes Shakhtar Ativo 137 / 138 40% 3 13.01.2028 -
Jaime Seoane Al-Faisaly Ativo 133 / 152 40% 2 13.01.2028 -
Musab Al-Juwayr Al-Qadisiyah Ativo 131 / 130 40% 4 07.01.2028 -
Luciano Juba Bahia Ativo 125 / 126 40% 1 05.01.2028 -
Souffian El Karouani Al-Qadisiyah Ativo 128 / 121 40% 1 04.01.2028 -
Vimal Yoganathan Barnsley Ativo 93 / 106 40% 1 04.01.2028 -
Rafael Vargas Cortulua Ativo 85 / 89 40% 1 04.01.2028 -
Yusuf Akçiçek Al-Hilal Ativo 139 / 116 40% 1 02.01.2028 -
Ahmed Nader Hawash ENPPI Ativo 117 / 109 76% 1 01.01.2028 Aprovar
Sergio Reguilón Inter Miami CF Ativo 141 / 156 40% 1 30.08.2027 -
Moussa Diaby Al-Ittihad Ativo 156 / 155 40% 1 28.08.2027 -
Brais Méndez Columbus Crew Ativo 158 / 137 40% 1 28.08.2027 -
Pedro Malheiro Al Wasl Ativo 142 / 147 40% 10 27.08.2027 -
Allan Saint-Maximin Charlotte Football Club Ativo 145 / 139 40% 2 27.08.2027 -
Merlin Röhl Everton Ativo 144 / 123 40% 1 26.08.2027 -
Patrick Berg Bodo/Glimt Ativo 144 / 123 40% 17 25.08.2027 -
Kristjan Asllani Inter Ativo 149 / 165 40% 1 25.08.2027 -
Breel Embolo Los Angeles Football Club Ativo 134 / 150 40% 1 25.08.2027 -
Matías Palacios Al Ain Ativo 134 / 137 40% 3 24.08.2027 -
Ângelo Al-Ra'ed Ativo 143 / 149 40% 1 24.08.2027 -
Momodou Jatta Al Jazira Ativo 114 / 102 40% 2 23.08.2027 -
Saël Kumbedi VfL Wolfsburg Ativo 145 / 157 40% 1 23.08.2027 -
Gabriel Pirani San Diego Football Club Ativo 125 / 118 40% 1 23.08.2027 -
Teo Rodríguez Pagano San Lorenzo Ativo 112 / 103 40% 1 23.08.2027 -
Alessandro Bianco Modena Ativo 136 / 117 40% 1 16.08.2027 -
Mehdi Dorval Catanzaro Ativo 140 / 153 40% 1 15.08.2027 -
Mbekezeli Mbokazi Chicago Fire Ativo 123 / 116 40% 2 13.08.2027 -
Marius Marin Al Nasr Ativo 130 / 154 40% 1 13.08.2027 -
Celías Ingenthron Racing Club Ativo 116 / 128 40% 1 13.08.2027 -
Marquinhos APOEL Ativo 139 / 143 40% 2 10.08.2027 -
Axel Tape Bayer Leverkusen Ativo 131 / 145 40% 1 09.08.2027 -
Harley Mills Peterborough United Ativo 95 / 92 40% 1 09.08.2027 -
Sascha Britschgi Fiorentina Ativo 124 / 138 40% 1 06.08.2027 -
Abubacarr Sedi Kinteh Al-Ahli Ativo 133 / 129 40% 1 05.08.2027 -
Egil Selvik Watford Ativo 131 / 124 40% 2 04.08.2027 -
Chris Brady Chicago Fire Ativo 134 / 154 40% 1 04.08.2027 -
Juan Moreno Cerro Largo Ativo 115 / 125 40% 1 03.08.2027 -
Bailey Peacock-Farrell Blackpool Ativo 100 / 107 40% 1 03.08.2027 -
Emiliano González BATE Ativo 124 / 136 40% 1 02.08.2027 -
Corey Addai Stockport County Ativo 115 / 93 40% 1 02.08.2027 -
Jonathan Klinsmann Cesena Ativo 136 / 119 40% 1 02.08.2027 -
Toni Fruk HNK Rijeka Ativo 146 / 153 40% 1 01.08.2027 -
Pedrinho Shakhtar Ativo 131 / 141 40% 4 31.07.2027 -
Yaghoub Barage Persepolis Ativo 113 / 118 40% 2 29.07.2027 -
Oleksandr Zinchenko Dynamo Kyiv Ativo 159 / 155 40% 10 29.07.2027 -
Volodymyr Brazhko Dynamo Kyiv Ativo 143 / 123 40% 1 25.07.2027 -
Dion Beljo Dinamo Zagreb Ativo 145 / 117 40% 2 23.07.2027 -
Maxence Caqueret Como Ativo 139 / 143 40% 4 19.07.2027 -
Elie N'Gatta Sochaux Ativo 95 / 98 40% 1 18.07.2027 -
Quentin Merlin Stade Rennais Ativo 146 / 135 40% 1 13.07.2027 -
Ezra Mayers West Ham United Ativo 120 / 140 40% 1 13.07.2027 -
Mauricio Amaro Atlanta United FC Ativo 123 / 141 40% 1 13.07.2027 -
Djibril Sow Genoa Ativo 143 / 121 40% 1 11.07.2027 -
Toma Bašić Venezia Ativo 139 / 128 40% 1 10.07.2027 -
Dinko Horkaš Al Wasl Ativo 136 / 130 40% 3 09.07.2027 -
Max O'Leary West Bromwich Albion Ativo 121 / 125 40% 2 09.07.2027 -
Demba Thiam Monza Ativo 117 / 113 40% 1 08.07.2027 -
Vladan Kovačević Norwich City Ativo 117 / 122 40% 1 08.07.2027 -
Samu Maccabi Netanya Ativo 124 / 123 40% 1 06.07.2027 -
Evgeny Staver Rubin Ativo 121 / 133 40% 1 05.07.2027 -
Alex Bass Peterborough United Ativo 120 / 133 40% 1 05.07.2027 -
Wilfried Kanga Al-Fateh Ativo 119 / 101 40% 1 25.06.2027 -
Joel Pereira Reading Ativo 109 / 104 40% 1 30.01.2027 Mais informações
Rustam Yatimov Rostov Ativo 115 / 102 40% 1 27.01.2027 -
Valentino Lazaro Al Ain Ativo 144 / 147 40% 12 23.01.2027 -
Lassina Traoré Shakhtar Ativo 129 / 135 40% 1 19.01.2027 -
Amr Zaki Masr El Makasa Ativo 109 / 104 76% 1 18.01.2027 Aprovar
Agustín Anello Spartak Moscow Ativo 115 / 104 40% 1 18.01.2027 -
Sipho Chaine Orlando Pirates Ativo 118 / 114 40% 1 08.01.2027 -
Maílson Al-Taawoun Ativo 127 / 138 40% 5 06.01.2027 -
Adrian Šemper Al-Fateh Ativo 122 / 126 40% 1 06.01.2027 -
Martin Vantruba Spartak Trnava Ativo 102 / 106 40% 1 06.01.2027 -
Heorhii Yermakov Metalist Ativo 126 / 124 40% 1 03.01.2027 -
Osman Hadžikić Honved Ativo 117 / 95 40% 1 03.01.2027 -
Nikita Kokarev Krylya Sovetov Ativo 111 / 110 40% 1 28.08.2026 -
Leopold Wahlstedt Rosenborg Ativo 105 / 114 40% 1 28.08.2026 -
Maclyn Biokpo Jenewari Rivers United Ativo 99 / 116 40% 1 26.08.2026 -
Svetoslav Vutsov Levski Ativo 127 / 142 40% 2 19.08.2026 -
Mohanad Ali Dibba Ativo 116 / 128 40% 1 19.08.2026 -
Albert Amoah Hajer Ativo 88 / 93 40% 1 19.08.2026 -
Pontus Dahlberg Lillestrom Ativo 119 / 89 40% 1 19.08.2026 -
Fahad Al-Zubaidi Al-Fateh Ativo 112 / 122 40% 1 17.08.2026 -
Mateusz Kochalski Qarabag Ativo 133 / 132 40% 1 14.08.2026 -
Younes El Bahraoui Al-Taawoun Ativo 117 / 126 40% 1 13.08.2026 -
Dramane Kamagaté USM Alger Ativo 103 / 103 40% 1 13.08.2026 -
Alexis Guendouz JS Kabylie Ativo 105 / 107 40% 1 10.08.2026 -
Mahamadou Doumbia Al-Ittihad Ativo 137 / 128 40% 1 03.08.2026 -
Mohammed Abu Al-Shamat Al-Qadisiyah Ativo 116 / 140 40% 1 03.08.2026 -
Matheus Gonçalves Al-Ahli Ativo 123 / 113 40% 1 03.08.2026 -
Visar Bekaj Tirana Ativo 107 / 103 40% 1 03.08.2026 -
Mohammad Alsalkhadi Damac Ativo 97 / 127 40% 1 01.08.2026 -